createdAt,value
2022-11-18T00:00:03.549Z,77.57
2022-11-18T00:03:06.455Z,77.70
2022-11-18T00:06:11.944Z,77.58
2022-11-18T00:09:13.406Z,77.57
2022-11-18T00:12:33.244Z,77.58
2022-11-18T00:15:34.762Z,77.60
2022-11-18T00:18:36.832Z,77.56
2022-11-18T00:21:38.393Z,77.58
2022-11-18T00:24:39.871Z,77.56
2022-11-18T00:27:41.414Z,77.62
2022-11-18T00:30:42.975Z,77.68
2022-11-18T00:33:44.464Z,77.72
2022-11-18T00:36:47.022Z,77.71
2022-11-18T00:39:48.515Z,77.88
2022-11-18T00:42:53.621Z,77.87
2022-11-18T00:45:55.152Z,77.84
2022-11-18T00:48:56.603Z,77.90
2022-11-18T00:51:58.206Z,77.85
2022-11-18T00:54:59.648Z,77.75
2022-11-18T00:58:01.087Z,77.66
2022-11-18T01:01:04.191Z,78.01
2022-11-18T01:04:05.804Z,77.83
2022-11-18T01:07:07.326Z,77.96
2022-11-18T01:10:09.249Z,77.77
2022-11-18T01:13:20.184Z,77.59
2022-11-18T01:16:24.189Z,77.78
2022-11-18T01:19:26.344Z,77.80
2022-11-18T01:22:27.916Z,77.82
2022-11-18T01:25:30.243Z,77.96
2022-11-18T01:28:32.063Z,77.85
2022-11-18T01:31:33.559Z,77.85
2022-11-18T01:34:35.273Z,77.68
2022-11-18T01:37:37.213Z,77.80
2022-11-18T01:40:39.109Z,77.56
2022-11-18T01:44:01.475Z,77.68
2022-11-18T01:47:02.939Z,77.56
2022-11-18T01:50:05.180Z,77.74
2022-11-18T01:53:12.087Z,77.70
2022-11-18T01:56:21.117Z,77.65
2022-11-18T01:59:27.607Z,77.85
2022-11-18T02:02:31.018Z,77.60
2022-11-18T02:05:34.739Z,77.79
2022-11-18T02:08:37.541Z,77.77
2022-11-18T02:11:51.589Z,77.69
2022-11-18T02:14:53.410Z,77.75
2022-11-18T02:18:07.031Z,77.63
2022-11-18T02:21:27.062Z,77.67
2022-11-18T02:24:54.972Z,77.92
2022-11-18T02:28:05.433Z,77.95
2022-11-18T02:31:49.783Z,77.91
2022-11-18T02:35:01.078Z,78.06
2022-11-18T02:38:11.762Z,78.00
2022-11-18T02:41:18.989Z,78.00
2022-11-18T02:44:24.186Z,77.87
2022-11-18T02:47:28.992Z,77.94
2022-11-18T02:50:33.457Z,77.89
2022-11-18T02:53:38.161Z,77.96
2022-11-18T02:56:41.127Z,77.87
2022-11-18T02:59:42.657Z,77.94
2022-11-18T03:02:46.666Z,77.91
2022-11-18T03:06:06.592Z,78.00
2022-11-18T03:09:18.571Z,78.08
2022-11-18T03:12:29.204Z,78.08
2022-11-18T03:15:51.812Z,78.00
2022-11-18T03:19:04.344Z,77.98
2022-11-18T03:22:05.737Z,77.93
2022-11-18T03:25:21.112Z,77.65
2022-11-18T03:28:37.061Z,77.73
2022-11-18T03:31:46.495Z,77.69
2022-11-18T03:34:52.605Z,77.76
2022-11-18T03:38:02.564Z,77.66
2022-11-18T03:41:08.403Z,77.40
2022-11-18T03:44:13.753Z,77.47
2022-11-18T03:47:22.857Z,77.44
2022-11-18T03:50:31.976Z,77.33
2022-11-18T03:53:37.096Z,77.48
2022-11-18T03:56:45.987Z,77.38
2022-11-18T03:59:53.663Z,77.22
2022-11-18T04:02:55.453Z,77.37
2022-11-18T04:06:05.422Z,77.14
2022-11-18T04:09:13.432Z,77.14
2022-11-18T04:12:18.858Z,77.16
2022-11-18T04:15:20.622Z,77.03
2022-11-18T04:18:22.748Z,77.13
2022-11-18T04:21:24.237Z,77.21
2022-11-18T04:24:25.767Z,77.22
2022-11-18T04:27:27.258Z,77.35
2022-11-18T04:30:29.378Z,77.37
2022-11-18T04:33:30.826Z,77.41
2022-11-18T04:36:32.402Z,77.54
2022-11-18T04:39:33.924Z,77.59
2022-11-18T04:42:35.598Z,77.34
2022-11-18T04:45:37.070Z,77.45
2022-11-18T04:48:38.554Z,77.35
2022-11-18T04:51:41.313Z,77.35
2022-11-18T04:54:43.082Z,77.40
2022-11-18T04:57:44.566Z,77.43
2022-11-18T05:00:46.033Z,77.29
2022-11-18T05:03:50.570Z,77.44
2022-11-18T05:06:53.199Z,77.38
2022-11-18T05:09:54.705Z,77.39
2022-11-18T05:12:56.220Z,77.44
2022-11-18T05:16:01.227Z,77.48
2022-11-18T05:19:04.663Z,77.45
2022-11-18T05:22:07.327Z,77.47
2022-11-18T05:25:09.391Z,77.31
2022-11-18T05:28:10.938Z,77.37
2022-11-18T05:31:16.343Z,77.43
2022-11-18T05:34:18.609Z,77.47
2022-11-18T05:37:20.151Z,77.47
2022-11-18T05:40:21.601Z,77.41
2022-11-18T05:43:23.123Z,77.55
2022-11-18T05:46:24.992Z,77.54
2022-11-18T05:49:26.446Z,77.55
2022-11-18T05:52:28.031Z,77.40
2022-11-18T05:55:35.268Z,77.62
2022-11-18T05:58:36.763Z,77.51
2022-11-18T06:01:40.257Z,77.93
2022-11-18T06:04:54.675Z,77.60
2022-11-18T06:07:57.683Z,77.83
2022-11-18T06:10:59.571Z,77.81
2022-11-18T06:14:10.056Z,77.77
2022-11-18T06:17:19.568Z,77.71
2022-11-18T06:20:21.635Z,77.74
2022-11-18T06:23:23.530Z,77.70
2022-11-18T06:26:25.080Z,77.57
2022-11-18T06:29:28.270Z,77.61
2022-11-18T06:32:30.044Z,77.66
2022-11-18T06:35:31.561Z,77.74
2022-11-18T06:38:33.049Z,77.67
2022-11-18T06:41:34.572Z,77.61
2022-11-18T06:44:36.098Z,77.53
2022-11-18T06:47:37.838Z,77.49
2022-11-18T06:50:39.352Z,77.34
2022-11-18T06:53:40.877Z,77.12
2022-11-18T06:56:42.375Z,76.88
2022-11-18T06:59:44.030Z,76.83
2022-11-18T07:02:45.504Z,76.84
2022-11-18T07:05:46.984Z,76.88
2022-11-18T07:08:49.235Z,76.91
2022-11-18T07:11:50.772Z,77.04
2022-11-18T07:14:52.269Z,76.99
2022-11-18T07:17:53.742Z,76.86
2022-11-18T07:20:55.200Z,76.85
2022-11-18T07:23:58.920Z,76.75
2022-11-18T07:27:00.368Z,76.44
2022-11-18T07:30:01.888Z,76.37
2022-11-18T07:33:03.474Z,76.15
2022-11-18T07:36:10.824Z,75.91
2022-11-18T07:39:12.406Z,75.83
2022-11-18T07:42:13.891Z,75.58
2022-11-18T07:45:15.447Z,75.36
2022-11-18T07:48:16.995Z,75.39
2022-11-18T07:51:21.119Z,75.51
2022-11-18T07:54:22.694Z,75.32
2022-11-18T07:57:24.217Z,75.22
2022-11-18T08:00:25.743Z,75.22
2022-11-18T08:03:28.223Z,75.25
2022-11-18T08:06:33.023Z,75.23
2022-11-18T08:09:34.551Z,75.27
2022-11-18T08:12:36.063Z,75.27
2022-11-18T08:15:41.401Z,75.32
2022-11-18T08:18:43.310Z,75.36
2022-11-18T08:21:44.761Z,75.33
2022-11-18T08:24:50.078Z,75.30
2022-11-18T08:27:52.393Z,75.19
2022-11-18T08:30:53.917Z,75.21
2022-11-18T08:34:03.352Z,75.18
2022-11-18T08:37:04.886Z,75.02
2022-11-18T08:40:06.823Z,75.07
2022-11-18T08:43:10.976Z,75.20
2022-11-18T08:46:12.494Z,75.22
2022-11-18T08:49:14.650Z,75.34
2022-11-18T08:52:16.206Z,75.23
2022-11-18T08:55:17.697Z,75.47
2022-11-18T08:58:19.219Z,75.42
2022-11-18T09:01:20.811Z,75.46
2022-11-18T09:04:22.538Z,75.42
2022-11-18T09:07:24.175Z,75.45
2022-11-18T09:10:25.725Z,75.44
2022-11-18T09:13:56.264Z,75.67
2022-11-18T09:16:48.651Z,75.95
2022-11-18T09:19:50.143Z,76.30
2022-11-18T09:22:51.706Z,76.60
2022-11-18T09:26:08.449Z,76.95
2022-11-18T09:29:11.574Z,76.97
2022-11-18T09:32:13.921Z,77.22
2022-11-18T09:35:15.710Z,77.54
2022-11-18T09:38:17.236Z,77.74
2022-11-18T09:41:44.116Z,77.93
2022-11-18T09:44:54.601Z,78.00
2022-11-18T09:48:06.261Z,78.29
2022-11-18T09:51:11.373Z,78.56
2022-11-18T09:54:30.460Z,78.79
2022-11-18T09:57:39.288Z,78.95
2022-11-18T10:00:43.539Z,79.45
2022-11-18T10:03:45.071Z,79.71
2022-11-18T10:06:49.095Z,80.04
2022-11-18T10:09:54.499Z,80.57
2022-11-18T10:13:05.787Z,80.98
2022-11-18T10:16:31.545Z,81.22
2022-11-18T10:19:54.760Z,81.43
2022-11-18T10:23:28.690Z,81.51
2022-11-18T10:26:39.398Z,81.66
2022-11-18T10:29:42.231Z,81.61
2022-11-18T10:33:22.176Z,81.47
2022-11-18T10:36:23.585Z,81.66
2022-11-18T10:39:25.101Z,81.58
2022-11-18T10:42:29.560Z,81.65
2022-11-18T10:45:32.477Z,81.59
2022-11-18T10:48:40.338Z,81.52
2022-11-18T10:51:46.533Z,81.45
2022-11-18T10:55:26.024Z,81.48
2022-11-18T10:58:30.548Z,81.57
2022-11-18T11:01:32.195Z,81.54
2022-11-18T11:04:36.490Z,81.64
2022-11-18T11:07:38.254Z,81.71
2022-11-18T11:10:39.783Z,81.80
2022-11-18T11:13:44.652Z,81.56
2022-11-18T11:17:15.518Z,81.52
2022-11-18T11:20:17.147Z,81.48
2022-11-18T11:23:23.514Z,81.46
2022-11-18T11:30:27.805Z,81.32
2022-11-18T11:33:36.492Z,81.33
2022-11-18T11:36:41.128Z,81.18
2022-11-18T11:39:48.505Z,81.20
2022-11-18T11:43:08.204Z,81.00
2022-11-18T11:46:19.247Z,81.17
2022-11-18T11:49:41.436Z,80.84
2022-11-18T11:52:54.971Z,80.68
2022-11-18T11:56:11.530Z,80.70
2022-11-18T11:59:28.322Z,80.61
2022-11-18T12:02:37.243Z,80.40
2022-11-18T12:05:42.881Z,80.44
2022-11-18T12:09:09.715Z,80.19
2022-11-18T12:12:35.587Z,80.08
2022-11-18T12:15:59.158Z,79.98
2022-11-18T12:19:21.641Z,79.77
2022-11-18T12:22:23.523Z,79.86
2022-11-18T12:25:43.598Z,79.86
2022-11-18T12:28:45.673Z,79.78
2022-11-18T12:31:50.500Z,79.79
2022-11-18T12:35:14.996Z,79.92
2022-11-18T12:38:31.560Z,79.87
2022-11-18T12:42:00.840Z,79.90
2022-11-18T12:45:40.231Z,79.58
2022-11-18T12:48:42.205Z,79.86
2022-11-18T12:51:44.285Z,79.67
2022-11-18T12:54:49.041Z,79.61
2022-11-18T12:57:50.744Z,79.50
2022-11-18T13:01:06.319Z,79.52
2022-11-18T13:04:14.442Z,79.71
2022-11-18T13:07:39.417Z,79.65
2022-11-18T13:10:44.283Z,79.67
2022-11-18T13:13:46.380Z,79.75
2022-11-18T13:17:07.249Z,79.72
2022-11-18T13:20:31.045Z,79.63
2022-11-18T13:23:56.144Z,79.76
2022-11-18T13:27:00.991Z,79.84
2022-11-18T13:30:12.727Z,79.88
2022-11-18T13:33:14.233Z,79.91
2022-11-18T13:36:20.905Z,79.93
2022-11-18T13:39:23.180Z,79.86
2022-11-18T13:42:27.865Z,79.85
2022-11-18T13:45:30.413Z,79.81
2022-11-18T13:48:34.999Z,79.81
2022-11-18T13:51:38.615Z,79.67
2022-11-18T13:54:41.273Z,79.72
2022-11-18T13:57:48.060Z,79.71
2022-11-18T14:01:01.584Z,79.42
2022-11-18T14:04:16.171Z,79.34
2022-11-18T14:07:33.483Z,79.33
2022-11-18T14:10:43.979Z,79.25
2022-11-18T14:13:59.862Z,79.00
2022-11-18T14:17:27.942Z,78.92
2022-11-18T14:20:30.731Z,78.83
2022-11-18T14:23:36.323Z,78.89
2022-11-18T14:26:38.684Z,78.67
2022-11-18T14:29:49.505Z,78.63
2022-11-18T14:33:06.173Z,78.61
2022-11-18T14:36:13.999Z,78.63
2022-11-18T14:39:27.422Z,78.57
2022-11-18T14:42:29.318Z,78.46
2022-11-18T14:45:31.286Z,78.33
2022-11-18T14:48:32.993Z,78.24
2022-11-18T14:51:34.512Z,78.12
2022-11-18T14:54:36.010Z,78.08
2022-11-18T14:57:37.582Z,77.96
2022-11-18T15:00:39.581Z,77.92
2022-11-18T15:03:41.115Z,77.78
2022-11-18T15:06:42.719Z,77.67
2022-11-18T15:09:44.775Z,77.60
2022-11-18T15:12:46.286Z,77.66
2022-11-18T15:15:48.423Z,77.39
2022-11-18T15:18:52.611Z,77.41
2022-11-18T15:21:54.145Z,77.51
2022-11-18T15:24:55.627Z,77.26
2022-11-18T15:27:57.258Z,77.30
2022-11-18T15:30:58.755Z,77.18
2022-11-18T15:34:06.283Z,77.21
2022-11-18T15:37:12.235Z,77.21
2022-11-18T15:40:14.018Z,77.15
2022-11-18T15:43:16.268Z,77.01
2022-11-18T15:46:19.349Z,77.04
2022-11-18T15:49:21.003Z,76.96
2022-11-18T15:52:22.943Z,76.85
2022-11-18T15:55:24.488Z,77.13
2022-11-18T15:58:26.017Z,76.90
2022-11-18T16:01:30.208Z,76.80
2022-11-18T16:04:31.737Z,76.66
2022-11-18T16:07:33.346Z,76.36
2022-11-18T16:10:54.603Z,76.57
2022-11-18T16:14:05.743Z,76.45
2022-11-18T16:17:07.236Z,76.47
2022-11-18T16:20:09.048Z,76.38
2022-11-18T16:23:10.561Z,76.33
2022-11-18T16:26:12.007Z,76.29
2022-11-18T16:29:16.590Z,76.26
2022-11-18T16:32:18.143Z,76.26
2022-11-18T16:35:19.636Z,76.10
2022-11-18T16:38:21.171Z,76.17
2022-11-18T16:41:31.503Z,76.00
2022-11-18T16:44:33.059Z,75.98
2022-11-18T16:47:34.542Z,75.85
2022-11-18T16:50:36.022Z,75.76
2022-11-18T16:53:37.524Z,75.37
2022-11-18T16:56:40.622Z,75.66
2022-11-18T16:59:42.214Z,75.72
2022-11-18T17:02:43.754Z,75.75
2022-11-18T17:05:45.233Z,75.84
2022-11-18T17:08:47.252Z,75.92
2022-11-18T17:11:49.697Z,76.29
2022-11-18T17:14:51.232Z,77.07
2022-11-18T17:17:52.762Z,77.96
2022-11-18T17:20:54.324Z,77.95
2022-11-18T17:23:56.639Z,78.05
2022-11-18T17:26:58.182Z,77.79
2022-11-18T17:29:59.686Z,77.91
2022-11-18T17:33:01.419Z,77.82
2022-11-18T17:36:16.853Z,77.65
2022-11-18T17:39:20.618Z,77.69
2022-11-18T17:42:25.569Z,77.70
2022-11-18T17:45:27.111Z,77.70
2022-11-18T17:48:30.203Z,77.67
2022-11-18T17:51:31.822Z,77.55
2022-11-18T17:54:33.335Z,77.63
2022-11-18T17:57:34.863Z,77.69
2022-11-18T18:00:37.272Z,77.65
2022-11-18T18:03:39.934Z,77.73
2022-11-18T18:06:41.481Z,77.67
2022-11-18T18:09:43.084Z,77.61
2022-11-18T18:13:03.451Z,77.60
2022-11-18T18:16:05.329Z,77.46
2022-11-18T18:19:08.176Z,77.53
2022-11-18T18:22:09.729Z,77.72
2022-11-18T18:25:12.070Z,77.72
2022-11-18T18:28:13.637Z,77.58
2022-11-18T18:31:16.907Z,77.71
2022-11-18T18:34:19.222Z,77.88
2022-11-18T18:37:21.009Z,77.80
2022-11-18T18:40:22.781Z,78.20
2022-11-18T18:43:24.325Z,78.03
2022-11-18T18:46:30.766Z,78.14
2022-11-18T18:49:32.563Z,78.25
2022-11-18T18:52:34.033Z,78.50
2022-11-18T18:55:37.292Z,78.60
2022-11-18T18:58:42.030Z,78.79
2022-11-18T19:01:43.649Z,78.81
2022-11-18T19:04:46.490Z,79.00
2022-11-18T19:07:48.029Z,78.70
2022-11-18T19:10:49.567Z,78.62
2022-11-18T19:13:51.050Z,78.81
2022-11-18T19:16:53.291Z,78.62
2022-11-18T19:20:20.699Z,78.78
2022-11-18T19:23:22.273Z,78.50
2022-11-18T19:26:23.862Z,78.69
2022-11-18T19:29:25.898Z,78.60
2022-11-18T19:32:27.462Z,78.66
2022-11-18T19:38:35.693Z,78.71
2022-11-18T19:41:37.168Z,78.37
2022-11-18T19:44:39.270Z,78.51
2022-11-18T19:47:40.937Z,78.47
2022-11-18T19:50:42.438Z,78.55
2022-11-18T19:53:44.211Z,78.59
2022-11-18T19:56:45.671Z,78.71
2022-11-18T19:59:47.226Z,78.52
2022-11-18T20:02:51.326Z,78.50
2022-11-18T20:05:52.890Z,78.85
2022-11-18T20:08:55.697Z,78.83
2022-11-18T20:11:57.304Z,78.40
2022-11-18T20:14:58.781Z,78.27
2022-11-18T20:18:01.517Z,78.37
2022-11-18T20:21:07.921Z,78.26
2022-11-18T20:24:15.678Z,78.30
2022-11-18T20:27:18.685Z,78.27
2022-11-18T20:30:20.740Z,78.25
2022-11-18T20:33:22.202Z,78.05
2022-11-18T20:36:31.164Z,78.14
2022-11-18T20:39:32.732Z,77.99
2022-11-18T20:42:53.118Z,78.01
2022-11-18T20:45:57.362Z,77.92
2022-11-18T20:48:58.942Z,77.98
2022-11-18T20:52:00.538Z,77.83
2022-11-18T20:55:05.646Z,77.80
2022-11-18T20:58:08.066Z,77.81
2022-11-18T21:01:18.366Z,77.96
2022-11-18T21:04:19.886Z,77.63
2022-11-18T21:07:21.437Z,77.86
2022-11-18T21:10:22.962Z,77.88
2022-11-18T21:13:43.018Z,77.82
2022-11-18T21:16:45.761Z,77.73
2022-11-18T21:19:48.616Z,77.74
2022-11-18T21:22:50.211Z,77.66
2022-11-18T21:25:51.712Z,77.58
2022-11-18T21:28:54.541Z,77.62
2022-11-18T21:31:57.706Z,77.66
2022-11-18T21:34:59.198Z,77.49
2022-11-18T21:38:04.528Z,77.58
2022-11-18T21:41:07.601Z,77.46
2022-11-18T21:44:11.702Z,77.51
2022-11-18T21:47:13.185Z,77.50
2022-11-18T21:50:14.902Z,77.29
2022-11-18T21:53:16.430Z,77.59
2022-11-18T21:56:20.988Z,77.33
2022-11-18T21:59:23.578Z,77.32
2022-11-18T22:02:25.084Z,77.08
2022-11-18T22:05:27.190Z,77.07
2022-11-18T22:08:29.184Z,77.00
2022-11-18T22:11:30.828Z,77.26
2022-11-18T22:14:32.376Z,77.33
2022-11-18T22:17:33.905Z,77.17
2022-11-18T22:20:35.358Z,77.27
2022-11-18T22:23:37.027Z,77.40
2022-11-18T22:26:38.591Z,77.22
2022-11-18T22:29:40.067Z,76.95
2022-11-18T22:32:43.398Z,76.85
2022-11-18T22:35:45.475Z,76.83
2022-11-18T22:38:47.311Z,77.00
2022-11-18T22:42:07.642Z,77.11
2022-11-18T22:45:09.350Z,77.02
2022-11-18T22:48:10.853Z,76.81
2022-11-18T22:51:12.318Z,77.24
2022-11-18T22:54:37.870Z,77.19
2022-11-18T22:57:35.790Z,77.47
2022-11-18T23:00:37.826Z,77.37
2022-11-18T23:03:39.386Z,77.51
2022-11-18T23:06:40.883Z,77.23
2022-11-18T23:09:42.489Z,77.07
2022-11-18T23:13:02.262Z,76.80
2022-11-18T23:16:03.998Z,76.89
2022-11-18T23:19:11.020Z,76.80
2022-11-18T23:22:12.977Z,76.80
2022-11-18T23:25:14.558Z,76.67
2022-11-18T23:28:15.998Z,76.57
2022-11-18T23:31:25.292Z,76.50
2022-11-18T23:34:26.759Z,76.36
2022-11-18T23:37:28.223Z,76.57
2022-11-18T23:40:30.961Z,76.47
2022-11-18T23:43:33.337Z,76.46
2022-11-18T23:46:35.232Z,76.42
2022-11-18T23:49:36.775Z,76.54
2022-11-18T23:52:41.616Z,76.44
2022-11-18T23:55:43.129Z,76.42
2022-11-18T23:58:46.777Z,76.36
